sensor_id;sensor_type;location;lat;lon;timestamp;P1;durP1;ratioP1;P2;durP2;ratioP2
11498;SDS011;5806;48.748;9.278;2023-01-24T00:00:52;9.57;;;7.83;;
11498;SDS011;5806;48.748;9.278;2023-01-24T00:03:19;9.37;;;7.27;;
11498;SDS011;5806;48.748;9.278;2023-01-24T00:05:47;8.87;;;7.73;;
11498;SDS011;5806;48.748;9.278;2023-01-24T00:08:16;12.23;;;8.63;;
11498;SDS011;5806;48.748;9.278;2023-01-24T00:10:46;9.77;;;8.00;;
11498;SDS011;5806;48.748;9.278;2023-01-24T00:13:14;9.53;;;7.73;;
11498;SDS011;5806;48.748;9.278;2023-01-24T00:15:42;10.90;;;8.10;;
11498;SDS011;5806;48.748;9.278;2023-01-24T00:18:10;11.60;;;8.67;;
11498;SDS011;5806;48.748;9.278;2023-01-24T00:20:37;10.60;;;8.90;;
11498;SDS011;5806;48.748;9.278;2023-01-24T00:23:04;9.43;;;8.20;;
11498;SDS011;5806;48.748;9.278;2023-01-24T00:25:32;10.80;;;7.83;;
11498;SDS011;5806;48.748;9.278;2023-01-24T00:27:59;8.67;;;7.63;;
11498;SDS011;5806;48.748;9.278;2023-01-24T00:30:27;9.07;;;7.87;;
11498;SDS011;5806;48.748;9.278;2023-01-24T00:32:54;8.07;;;7.10;;
11498;SDS011;5806;48.748;9.278;2023-01-24T00:35:21;9.87;;;7.73;;
11498;SDS011;5806;48.748;9.278;2023-01-24T00:37:49;9.50;;;7.27;;
11498;SDS011;5806;48.748;9.278;2023-01-24T00:40:16;8.13;;;7.27;;
11498;SDS011;5806;48.748;9.278;2023-01-24T00:42:44;9.30;;;7.53;;
11498;SDS011;5806;48.748;9.278;2023-01-24T00:45:11;9.90;;;7.20;;
11498;SDS011;5806;48.748;9.278;2023-01-24T00:47:39;8.27;;;6.57;;
11498;SDS011;5806;48.748;9.278;2023-01-24T00:50:07;8.27;;;6.77;;
11498;SDS011;5806;48.748;9.278;2023-01-24T00:52:34;8.33;;;7.03;;
11498;SDS011;5806;48.748;9.278;2023-01-24T00:55:02;9.63;;;7.63;;
11498;SDS011;5806;48.748;9.278;2023-01-24T00:57:30;9.53;;;8.10;;
11498;SDS011;5806;48.748;9.278;2023-01-24T00:59:57;8.30;;;6.80;;
11498;SDS011;5806;48.748;9.278;2023-01-24T01:02:24;8.37;;;7.20;;
11498;SDS011;5806;48.748;9.278;2023-01-24T01:04:52;9.33;;;7.63;;
11498;SDS011;5806;48.748;9.278;2023-01-24T01:07:19;10.37;;;8.37;;
11498;SDS011;5806;48.748;9.278;2023-01-24T01:09:48;9.33;;;8.07;;
11498;SDS011;5806;48.748;9.278;2023-01-24T01:12:15;9.90;;;8.10;;
11498;SDS011;5806;48.748;9.278;2023-01-24T01:14:43;10.10;;;8.33;;
11498;SDS011;5806;48.748;9.278;2023-01-24T01:17:10;10.70;;;8.37;;
11498;SDS011;5806;48.748;9.278;2023-01-24T01:19:38;10.10;;;8.90;;
11498;SDS011;5806;48.748;9.278;2023-01-24T01:22:05;11.00;;;8.27;;
11498;SDS011;5806;48.748;9.278;2023-01-24T01:24:33;7.97;;;7.03;;
11498;SDS011;5806;48.748;9.278;2023-01-24T01:27:00;8.40;;;7.37;;
11498;SDS011;5806;48.748;9.278;2023-01-24T01:29:28;9.37;;;7.40;;
11498;SDS011;5806;48.748;9.278;2023-01-24T01:31:55;9.43;;;6.97;;
11498;SDS011;5806;48.748;9.278;2023-01-24T01:34:22;8.43;;;7.10;;
11498;SDS011;5806;48.748;9.278;2023-01-24T01:36:50;8.10;;;7.00;;
11498;SDS011;5806;48.748;9.278;2023-01-24T01:39:17;8.63;;;6.57;;
11498;SDS011;5806;48.748;9.278;2023-01-24T01:41:45;8.77;;;7.10;;
11498;SDS011;5806;48.748;9.278;2023-01-24T01:44:26;9.57;;;7.40;;
11498;SDS011;5806;48.748;9.278;2023-01-24T01:47:13;8.40;;;6.57;;
11498;SDS011;5806;48.748;9.278;2023-01-24T01:49:59;8.10;;;6.70;;
11498;SDS011;5806;48.748;9.278;2023-01-24T01:52:29;8.47;;;6.73;;
11498;SDS011;5806;48.748;9.278;2023-01-24T01:54:59;8.53;;;6.90;;
11498;SDS011;5806;48.748;9.278;2023-01-24T01:57:29;8.67;;;7.70;;
11498;SDS011;5806;48.748;9.278;2023-01-24T02:00:03;7.30;;;5.87;;
11498;SDS011;5806;48.748;9.278;2023-01-24T02:02:31;10.13;;;7.50;;
11498;SDS011;5806;48.748;9.278;2023-01-24T02:05:00;9.03;;;7.03;;
11498;SDS011;5806;48.748;9.278;2023-01-24T02:10:03;8.53;;;7.63;;
11498;SDS011;5806;48.748;9.278;2023-01-24T02:12:33;8.97;;;7.47;;
11498;SDS011;5806;48.748;9.278;2023-01-24T02:15:06;10.03;;;7.57;;
11498;SDS011;5806;48.748;9.278;2023-01-24T02:17:49;9.60;;;7.80;;
11498;SDS011;5806;48.748;9.278;2023-01-24T02:28:35;11.10;;;8.20;;
11498;SDS011;5806;48.748;9.278;2023-01-24T02:31:03;10.50;;;8.03;;
11498;SDS011;5806;48.748;9.278;2023-01-24T02:33:32;10.53;;;8.77;;
11498;SDS011;5806;48.748;9.278;2023-01-24T02:36:13;9.27;;;7.37;;
11498;SDS011;5806;48.748;9.278;2023-01-24T02:38:43;8.13;;;6.80;;
11498;SDS011;5806;48.748;9.278;2023-01-24T02:41:12;10.47;;;7.67;;
11498;SDS011;5806;48.748;9.278;2023-01-24T02:43:44;9.30;;;7.83;;
11498;SDS011;5806;48.748;9.278;2023-01-24T02:46:14;9.70;;;7.60;;
11498;SDS011;5806;48.748;9.278;2023-01-24T02:48:41;10.57;;;8.00;;
11498;SDS011;5806;48.748;9.278;2023-01-24T02:51:08;9.53;;;7.77;;
11498;SDS011;5806;48.748;9.278;2023-01-24T02:53:54;9.87;;;8.10;;
11498;SDS011;5806;48.748;9.278;2023-01-24T02:56:21;8.83;;;7.07;;
11498;SDS011;5806;48.748;9.278;2023-01-24T02:59:06;9.57;;;7.50;;
11498;SDS011;5806;48.748;9.278;2023-01-24T03:01:34;9.07;;;7.57;;
11498;SDS011;5806;48.748;9.278;2023-01-24T03:04:01;8.27;;;7.10;;
11498;SDS011;5806;48.748;9.278;2023-01-24T03:06:29;8.33;;;7.17;;
11498;SDS011;5806;48.748;9.278;2023-01-24T03:08:56;7.67;;;6.60;;
11498;SDS011;5806;48.748;9.278;2023-01-24T03:11:24;8.23;;;6.70;;
11498;SDS011;5806;48.748;9.278;2023-01-24T03:13:51;7.70;;;6.50;;
11498;SDS011;5806;48.748;9.278;2023-01-24T03:16:36;7.67;;;6.37;;
11498;SDS011;5806;48.748;9.278;2023-01-24T03:19:22;7.10;;;6.27;;
11498;SDS011;5806;48.748;9.278;2023-01-24T03:22:07;8.20;;;6.60;;
11498;SDS011;5806;48.748;9.278;2023-01-24T03:24:52;8.30;;;6.50;;
11498;SDS011;5806;48.748;9.278;2023-01-24T03:27:38;7.77;;;6.80;;
11498;SDS011;5806;48.748;9.278;2023-01-24T03:30:23;8.50;;;7.20;;
11498;SDS011;5806;48.748;9.278;2023-01-24T03:33:09;7.27;;;6.13;;
11498;SDS011;5806;48.748;9.278;2023-01-24T03:35:54;9.57;;;7.17;;
11498;SDS011;5806;48.748;9.278;2023-01-24T03:38:23;7.90;;;6.20;;
11498;SDS011;5806;48.748;9.278;2023-01-24T03:41:08;10.90;;;7.13;;
11498;SDS011;5806;48.748;9.278;2023-01-24T03:43:36;6.33;;;5.63;;
11498;SDS011;5806;48.748;9.278;2023-01-24T03:46:03;7.57;;;6.13;;
11498;SDS011;5806;48.748;9.278;2023-01-24T03:48:31;7.50;;;5.77;;
11498;SDS011;5806;48.748;9.278;2023-01-24T03:51:02;10.53;;;6.47;;
11498;SDS011;5806;48.748;9.278;2023-01-24T03:53:48;7.97;;;6.33;;
11498;SDS011;5806;48.748;9.278;2023-01-24T03:56:16;8.67;;;7.27;;
11498;SDS011;5806;48.748;9.278;2023-01-24T03:58:43;7.87;;;6.27;;
11498;SDS011;5806;48.748;9.278;2023-01-24T04:01:11;7.77;;;6.70;;
11498;SDS011;5806;48.748;9.278;2023-01-24T04:03:39;8.63;;;6.83;;
11498;SDS011;5806;48.748;9.278;2023-01-24T04:06:06;8.73;;;6.83;;
11498;SDS011;5806;48.748;9.278;2023-01-24T04:08:34;8.77;;;7.07;;
11498;SDS011;5806;48.748;9.278;2023-01-24T04:11:01;8.53;;;6.70;;
11498;SDS011;5806;48.748;9.278;2023-01-24T04:13:29;8.13;;;6.63;;
11498;SDS011;5806;48.748;9.278;2023-01-24T04:15:56;8.37;;;6.87;;
11498;SDS011;5806;48.748;9.278;2023-01-24T04:18:23;7.77;;;6.93;;
11498;SDS011;5806;48.748;9.278;2023-01-24T04:20:51;8.00;;;6.73;;
11498;SDS011;5806;48.748;9.278;2023-01-24T04:23:18;7.60;;;6.23;;
11498;SDS011;5806;48.748;9.278;2023-01-24T04:25:49;8.50;;;7.40;;
11498;SDS011;5806;48.748;9.278;2023-01-24T04:28:19;8.67;;;6.47;;
11498;SDS011;5806;48.748;9.278;2023-01-24T04:30:47;8.70;;;6.90;;
11498;SDS011;5806;48.748;9.278;2023-01-24T04:33:14;8.50;;;6.83;;
11498;SDS011;5806;48.748;9.278;2023-01-24T04:35:42;9.40;;;7.20;;
11498;SDS011;5806;48.748;9.278;2023-01-24T04:38:09;8.43;;;7.33;;
11498;SDS011;5806;48.748;9.278;2023-01-24T04:40:37;8.87;;;7.20;;
11498;SDS011;5806;48.748;9.278;2023-01-24T04:43:06;8.40;;;6.63;;
11498;SDS011;5806;48.748;9.278;2023-01-24T04:45:33;7.97;;;6.60;;
11498;SDS011;5806;48.748;9.278;2023-01-24T04:48:01;9.50;;;7.20;;
11498;SDS011;5806;48.748;9.278;2023-01-24T04:50:28;8.50;;;6.47;;
11498;SDS011;5806;48.748;9.278;2023-01-24T04:52:55;8.40;;;6.83;;
11498;SDS011;5806;48.748;9.278;2023-01-24T04:55:23;8.23;;;6.83;;
11498;SDS011;5806;48.748;9.278;2023-01-24T04:57:50;7.80;;;6.53;;
11498;SDS011;5806;48.748;9.278;2023-01-24T05:00:18;8.97;;;6.70;;
11498;SDS011;5806;48.748;9.278;2023-01-24T05:02:45;9.03;;;6.97;;
11498;SDS011;5806;48.748;9.278;2023-01-24T05:05:13;7.23;;;6.27;;
11498;SDS011;5806;48.748;9.278;2023-01-24T05:07:40;8.60;;;6.70;;
11498;SDS011;5806;48.748;9.278;2023-01-24T05:10:08;8.43;;;6.43;;
11498;SDS011;5806;48.748;9.278;2023-01-24T05:12:36;8.07;;;7.03;;
11498;SDS011;5806;48.748;9.278;2023-01-24T05:15:04;9.13;;;7.50;;
11498;SDS011;5806;48.748;9.278;2023-01-24T05:17:33;8.67;;;6.87;;
11498;SDS011;5806;48.748;9.278;2023-01-24T05:20:00;7.67;;;6.47;;
11498;SDS011;5806;48.748;9.278;2023-01-24T05:22:28;9.03;;;7.43;;
11498;SDS011;5806;48.748;9.278;2023-01-24T05:24:56;8.27;;;6.77;;
11498;SDS011;5806;48.748;9.278;2023-01-24T05:27:23;7.90;;;6.57;;
11498;SDS011;5806;48.748;9.278;2023-01-24T05:29:51;8.77;;;6.47;;
11498;SDS011;5806;48.748;9.278;2023-01-24T05:32:18;8.30;;;6.57;;
11498;SDS011;5806;48.748;9.278;2023-01-24T05:34:46;6.87;;;6.10;;
11498;SDS011;5806;48.748;9.278;2023-01-24T05:37:13;8.63;;;6.43;;
11498;SDS011;5806;48.748;9.278;2023-01-24T05:39:40;7.87;;;6.33;;
11498;SDS011;5806;48.748;9.278;2023-01-24T05:42:08;9.07;;;7.00;;
11498;SDS011;5806;48.748;9.278;2023-01-24T05:44:35;7.80;;;6.43;;
11498;SDS011;5806;48.748;9.278;2023-01-24T05:47:03;8.73;;;6.60;;
11498;SDS011;5806;48.748;9.278;2023-01-24T05:49:30;6.60;;;5.90;;
11498;SDS011;5806;48.748;9.278;2023-01-24T05:51:57;7.33;;;6.00;;
11498;SDS011;5806;48.748;9.278;2023-01-24T05:54:25;8.63;;;7.27;;
11498;SDS011;5806;48.748;9.278;2023-01-24T05:56:52;7.87;;;6.17;;
11498;SDS011;5806;48.748;9.278;2023-01-24T05:59:20;8.00;;;6.03;;
11498;SDS011;5806;48.748;9.278;2023-01-24T06:01:48;7.93;;;6.47;;
11498;SDS011;5806;48.748;9.278;2023-01-24T06:04:15;8.57;;;7.00;;
11498;SDS011;5806;48.748;9.278;2023-01-24T06:06:42;7.43;;;6.63;;
11498;SDS011;5806;48.748;9.278;2023-01-24T06:09:10;9.67;;;7.03;;
11498;SDS011;5806;48.748;9.278;2023-01-24T06:11:37;8.67;;;7.33;;
11498;SDS011;5806;48.748;9.278;2023-01-24T06:14:05;8.73;;;7.27;;
11498;SDS011;5806;48.748;9.278;2023-01-24T06:16:32;8.90;;;7.27;;
11498;SDS011;5806;48.748;9.278;2023-01-24T06:19:00;9.80;;;7.47;;
11498;SDS011;5806;48.748;9.278;2023-01-24T06:24:20;7.17;;;6.30;;
11498;SDS011;5806;48.748;9.278;2023-01-24T06:26:50;7.67;;;6.50;;
11498;SDS011;5806;48.748;9.278;2023-01-24T06:29:19;7.43;;;6.63;;
11498;SDS011;5806;48.748;9.278;2023-01-24T06:31:50;8.73;;;6.50;;
11498;SDS011;5806;48.748;9.278;2023-01-24T06:34:32;8.63;;;6.50;;
11498;SDS011;5806;48.748;9.278;2023-01-24T06:39:49;6.77;;;5.53;;
11498;SDS011;5806;48.748;9.278;2023-01-24T06:42:18;6.90;;;6.07;;
11498;SDS011;5806;48.748;9.278;2023-01-24T06:44:48;6.93;;;6.23;;
11498;SDS011;5806;48.748;9.278;2023-01-24T06:47:16;6.97;;;6.10;;
11498;SDS011;5806;48.748;9.278;2023-01-24T06:49:43;8.83;;;6.50;;
11498;SDS011;5806;48.748;9.278;2023-01-24T06:52:11;7.47;;;6.57;;
11498;SDS011;5806;48.748;9.278;2023-01-24T06:54:38;6.80;;;6.07;;
11498;SDS011;5806;48.748;9.278;2023-01-24T06:57:06;6.97;;;6.00;;
11498;SDS011;5806;48.748;9.278;2023-01-24T06:59:34;6.57;;;5.83;;
11498;SDS011;5806;48.748;9.278;2023-01-24T07:02:01;8.57;;;6.80;;
11498;SDS011;5806;48.748;9.278;2023-01-24T07:04:29;6.77;;;6.10;;
11498;SDS011;5806;48.748;9.278;2023-01-24T07:06:56;7.27;;;5.83;;
11498;SDS011;5806;48.748;9.278;2023-01-24T07:09:24;7.80;;;6.03;;
11498;SDS011;5806;48.748;9.278;2023-01-24T07:11:51;7.30;;;6.40;;
11498;SDS011;5806;48.748;9.278;2023-01-24T07:14:22;6.93;;;5.93;;
11498;SDS011;5806;48.748;9.278;2023-01-24T07:16:50;7.43;;;6.60;;
11498;SDS011;5806;48.748;9.278;2023-01-24T07:19:18;7.40;;;6.60;;
11498;SDS011;5806;48.748;9.278;2023-01-24T07:21:51;7.23;;;6.27;;
11498;SDS011;5806;48.748;9.278;2023-01-24T07:24:21;7.87;;;7.03;;
11498;SDS011;5806;48.748;9.278;2023-01-24T07:26:55;7.93;;;6.43;;
11498;SDS011;5806;48.748;9.278;2023-01-24T07:29:23;7.73;;;6.10;;
11498;SDS011;5806;48.748;9.278;2023-01-24T07:31:51;7.47;;;6.30;;
11498;SDS011;5806;48.748;9.278;2023-01-24T07:34:19;7.97;;;7.03;;
11498;SDS011;5806;48.748;9.278;2023-01-24T07:36:47;7.60;;;6.80;;
11498;SDS011;5806;48.748;9.278;2023-01-24T07:39:15;7.83;;;6.80;;
11498;SDS011;5806;48.748;9.278;2023-01-24T07:41:42;8.37;;;6.83;;
11498;SDS011;5806;48.748;9.278;2023-01-24T07:44:11;7.83;;;7.03;;
11498;SDS011;5806;48.748;9.278;2023-01-24T07:46:39;7.60;;;6.53;;
11498;SDS011;5806;48.748;9.278;2023-01-24T07:49:07;7.43;;;6.60;;
11498;SDS011;5806;48.748;9.278;2023-01-24T07:51:34;7.43;;;6.40;;
11498;SDS011;5806;48.748;9.278;2023-01-24T07:54:02;9.63;;;7.27;;
11498;SDS011;5806;48.748;9.278;2023-01-24T07:56:29;8.27;;;7.00;;
11498;SDS011;5806;48.748;9.278;2023-01-24T07:58:57;8.27;;;6.60;;
11498;SDS011;5806;48.748;9.278;2023-01-24T08:01:25;7.80;;;6.70;;
11498;SDS011;5806;48.748;9.278;2023-01-24T08:03:54;9.23;;;7.60;;
11498;SDS011;5806;48.748;9.278;2023-01-24T08:06:22;8.93;;;7.30;;
11498;SDS011;5806;48.748;9.278;2023-01-24T08:08:50;8.37;;;7.00;;
11498;SDS011;5806;48.748;9.278;2023-01-24T08:11:17;8.27;;;7.00;;
11498;SDS011;5806;48.748;9.278;2023-01-24T08:13:45;9.10;;;7.20;;
11498;SDS011;5806;48.748;9.278;2023-01-24T08:16:13;7.77;;;6.97;;
11498;SDS011;5806;48.748;9.278;2023-01-24T08:18:40;8.93;;;7.17;;
11498;SDS011;5806;48.748;9.278;2023-01-24T08:21:09;9.23;;;7.23;;
11498;SDS011;5806;48.748;9.278;2023-01-24T08:23:37;7.97;;;7.17;;
11498;SDS011;5806;48.748;9.278;2023-01-24T08:26:05;8.40;;;6.60;;
11498;SDS011;5806;48.748;9.278;2023-01-24T08:28:32;7.33;;;6.57;;
11498;SDS011;5806;48.748;9.278;2023-01-24T08:31:01;8.07;;;7.20;;
11498;SDS011;5806;48.748;9.278;2023-01-24T08:33:28;9.23;;;7.77;;
11498;SDS011;5806;48.748;9.278;2023-01-24T08:35:55;8.00;;;7.20;;
11498;SDS011;5806;48.748;9.278;2023-01-24T08:38:24;8.70;;;7.57;;
11498;SDS011;5806;48.748;9.278;2023-01-24T08:40:52;9.13;;;7.47;;
11498;SDS011;5806;48.748;9.278;2023-01-24T08:43:19;9.70;;;7.73;;
11498;SDS011;5806;48.748;9.278;2023-01-24T08:45:47;9.47;;;7.60;;
11498;SDS011;5806;48.748;9.278;2023-01-24T08:48:16;9.53;;;8.00;;
11498;SDS011;5806;48.748;9.278;2023-01-24T08:50:43;9.20;;;7.53;;
11498;SDS011;5806;48.748;9.278;2023-01-24T08:53:11;8.70;;;7.27;;
11498;SDS011;5806;48.748;9.278;2023-01-24T08:55:40;10.40;;;7.57;;
11498;SDS011;5806;48.748;9.278;2023-01-24T08:58:07;11.30;;;8.43;;
11498;SDS011;5806;48.748;9.278;2023-01-24T09:00:35;9.47;;;7.80;;
11498;SDS011;5806;48.748;9.278;2023-01-24T09:03:02;9.67;;;7.87;;
11498;SDS011;5806;48.748;9.278;2023-01-24T09:05:30;7.50;;;6.63;;
11498;SDS011;5806;48.748;9.278;2023-01-24T09:07:57;9.83;;;8.27;;
11498;SDS011;5806;48.748;9.278;2023-01-24T09:10:26;8.40;;;6.57;;
11498;SDS011;5806;48.748;9.278;2023-01-24T09:12:53;8.07;;;7.20;;
11498;SDS011;5806;48.748;9.278;2023-01-24T09:15:21;8.47;;;7.10;;
11498;SDS011;5806;48.748;9.278;2023-01-24T09:17:49;7.97;;;6.63;;
11498;SDS011;5806;48.748;9.278;2023-01-24T09:20:16;8.30;;;7.40;;
11498;SDS011;5806;48.748;9.278;2023-01-24T09:22:44;7.70;;;6.90;;
11498;SDS011;5806;48.748;9.278;2023-01-24T09:25:11;9.57;;;7.70;;
11498;SDS011;5806;48.748;9.278;2023-01-24T09:27:39;10.03;;;8.30;;
11498;SDS011;5806;48.748;9.278;2023-01-24T09:30:07;9.90;;;7.20;;
11498;SDS011;5806;48.748;9.278;2023-01-24T09:32:36;9.73;;;7.87;;
11498;SDS011;5806;48.748;9.278;2023-01-24T09:35:03;9.07;;;7.30;;
11498;SDS011;5806;48.748;9.278;2023-01-24T09:37:31;9.20;;;7.67;;
11498;SDS011;5806;48.748;9.278;2023-01-24T09:39:58;9.90;;;7.77;;
11498;SDS011;5806;48.748;9.278;2023-01-24T09:47:47;11.87;;;8.60;;
11498;SDS011;5806;48.748;9.278;2023-01-24T09:50:20;10.23;;;8.13;;
11498;SDS011;5806;48.748;9.278;2023-01-24T09:52:52;9.03;;;8.10;;
11498;SDS011;5806;48.748;9.278;2023-01-24T09:55:27;8.20;;;7.00;;
11498;SDS011;5806;48.748;9.278;2023-01-24T09:57:56;9.60;;;7.30;;
11498;SDS011;5806;48.748;9.278;2023-01-24T10:00:36;8.90;;;7.93;;
11498;SDS011;5806;48.748;9.278;2023-01-24T10:03:27;12.60;;;7.87;;
11498;SDS011;5806;48.748;9.278;2023-01-24T10:05:50;8.90;;;7.77;;
11498;SDS011;5806;48.748;9.278;2023-01-24T10:11:32;8.13;;;7.33;;
11498;SDS011;5806;48.748;9.278;2023-01-24T10:14:25;7.70;;;6.90;;
11498;SDS011;5806;48.748;9.278;2023-01-24T10:28:08;7.70;;;6.90;;
11498;SDS011;5806;48.748;9.278;2023-01-24T10:30:41;8.80;;;6.73;;
11498;SDS011;5806;48.748;9.278;2023-01-24T10:33:18;8.27;;;6.73;;
11498;SDS011;5806;48.748;9.278;2023-01-24T10:35:57;7.67;;;6.83;;
11498;SDS011;5806;48.748;9.278;2023-01-24T10:38:22;9.43;;;6.77;;
11498;SDS011;5806;48.748;9.278;2023-01-24T10:40:54;8.37;;;6.97;;
11498;SDS011;5806;48.748;9.278;2023-01-24T10:43:25;8.73;;;7.60;;
11498;SDS011;5806;48.748;9.278;2023-01-24T10:46:16;8.63;;;6.77;;
11498;SDS011;5806;48.748;9.278;2023-01-24T10:48:52;6.40;;;5.73;;
11498;SDS011;5806;48.748;9.278;2023-01-24T10:51:22;8.07;;;7.20;;
11498;SDS011;5806;48.748;9.278;2023-01-24T10:53:51;7.97;;;6.77;;
11498;SDS011;5806;48.748;9.278;2023-01-24T10:56:21;7.50;;;6.80;;
11498;SDS011;5806;48.748;9.278;2023-01-24T10:58:55;8.23;;;6.80;;
11498;SDS011;5806;48.748;9.278;2023-01-24T11:01:37;7.20;;;6.33;;
11498;SDS011;5806;48.748;9.278;2023-01-24T11:04:18;7.70;;;6.57;;
11498;SDS011;5806;48.748;9.278;2023-01-24T11:06:41;6.83;;;6.13;;
11498;SDS011;5806;48.748;9.278;2023-01-24T11:09:19;7.80;;;7.00;;
11498;SDS011;5806;48.748;9.278;2023-01-24T11:11:51;8.60;;;7.20;;
11498;SDS011;5806;48.748;9.278;2023-01-24T11:14:21;8.03;;;6.90;;
11498;SDS011;5806;48.748;9.278;2023-01-24T11:16:57;7.57;;;6.77;;
11498;SDS011;5806;48.748;9.278;2023-01-24T11:19:32;8.17;;;7.20;;
11498;SDS011;5806;48.748;9.278;2023-01-24T11:22:20;7.97;;;6.73;;
11498;SDS011;5806;48.748;9.278;2023-01-24T11:24:49;6.97;;;6.27;;
11498;SDS011;5806;48.748;9.278;2023-01-24T11:27:19;7.67;;;6.87;;
11498;SDS011;5806;48.748;9.278;2023-01-24T11:32:47;7.30;;;6.50;;
11498;SDS011;5806;48.748;9.278;2023-01-24T11:35:16;7.63;;;6.67;;
11498;SDS011;5806;48.748;9.278;2023-01-24T11:40:48;10.23;;;7.60;;
11498;SDS011;5806;48.748;9.278;2023-01-24T11:43:36;7.27;;;6.47;;
11498;SDS011;5806;48.748;9.278;2023-01-24T11:46:13;9.37;;;7.40;;
11498;SDS011;5806;48.748;9.278;2023-01-24T11:51:52;7.83;;;6.80;;
11498;SDS011;5806;48.748;9.278;2023-01-24T11:54:31;8.40;;;7.50;;
11498;SDS011;5806;48.748;9.278;2023-01-24T11:57:19;7.23;;;6.53;;
11498;SDS011;5806;48.748;9.278;2023-01-24T12:00:00;7.17;;;6.30;;
11498;SDS011;5806;48.748;9.278;2023-01-24T12:11:00;9.53;;;7.93;;
11498;SDS011;5806;48.748;9.278;2023-01-24T12:13:32;8.03;;;6.87;;
11498;SDS011;5806;48.748;9.278;2023-01-24T12:21:37;9.73;;;7.87;;
11498;SDS011;5806;48.748;9.278;2023-01-24T12:24:08;8.40;;;7.53;;
11498;SDS011;5806;48.748;9.278;2023-01-24T12:26:41;9.27;;;7.70;;
11498;SDS011;5806;48.748;9.278;2023-01-24T12:29:09;10.83;;;8.13;;
11498;SDS011;5806;48.748;9.278;2023-01-24T12:31:52;9.67;;;8.00;;
11498;SDS011;5806;48.748;9.278;2023-01-24T12:45:28;8.90;;;8.00;;
11498;SDS011;5806;48.748;9.278;2023-01-24T12:53:44;8.80;;;7.83;;
11498;SDS011;5806;48.748;9.278;2023-01-24T12:56:18;8.80;;;7.60;;
11498;SDS011;5806;48.748;9.278;2023-01-24T12:58:43;9.20;;;7.67;;
11498;SDS011;5806;48.748;9.278;2023-01-24T13:01:24;7.80;;;7.10;;
11498;SDS011;5806;48.748;9.278;2023-01-24T13:04:01;8.57;;;7.67;;
11498;SDS011;5806;48.748;9.278;2023-01-24T13:09:36;9.57;;;7.73;;
11498;SDS011;5806;48.748;9.278;2023-01-24T13:12:09;9.73;;;7.80;;
11498;SDS011;5806;48.748;9.278;2023-01-24T13:25:33;9.70;;;8.13;;
11498;SDS011;5806;48.748;9.278;2023-01-24T13:34:09;7.83;;;7.03;;
11498;SDS011;5806;48.748;9.278;2023-01-24T13:36:21;8.43;;;7.50;;
11498;SDS011;5806;48.748;9.278;2023-01-24T13:38:46;9.60;;;8.10;;
11498;SDS011;5806;48.748;9.278;2023-01-24T13:41:31;9.27;;;7.60;;
11498;SDS011;5806;48.748;9.278;2023-01-24T13:52:01;7.63;;;6.83;;
11498;SDS011;5806;48.748;9.278;2023-01-24T13:57:19;8.00;;;7.07;;
11498;SDS011;5806;48.748;9.278;2023-01-24T14:10:48;8.87;;;7.90;;
11498;SDS011;5806;48.748;9.278;2023-01-24T14:21:30;9.40;;;7.47;;
11498;SDS011;5806;48.748;9.278;2023-01-24T14:27:13;9.67;;;8.67;;
11498;SDS011;5806;48.748;9.278;2023-01-24T14:29:48;10.77;;;9.67;;
11498;SDS011;5806;48.748;9.278;2023-01-24T14:32:23;10.63;;;9.17;;
11498;SDS011;5806;48.748;9.278;2023-01-24T14:35:05;8.93;;;8.03;;
11498;SDS011;5806;48.748;9.278;2023-01-24T14:37:31;12.33;;;10.27;;
11498;SDS011;5806;48.748;9.278;2023-01-24T14:42:46;10.13;;;8.97;;
11498;SDS011;5806;48.748;9.278;2023-01-24T14:45:21;10.10;;;8.93;;
11498;SDS011;5806;48.748;9.278;2023-01-24T14:47:49;9.70;;;8.70;;
11498;SDS011;5806;48.748;9.278;2023-01-24T14:50:19;8.87;;;7.70;;
11498;SDS011;5806;48.748;9.278;2023-01-24T14:52:49;7.57;;;6.80;;
11498;SDS011;5806;48.748;9.278;2023-01-24T14:58:18;8.90;;;7.50;;
11498;SDS011;5806;48.748;9.278;2023-01-24T15:00:43;9.27;;;7.63;;
11498;SDS011;5806;48.748;9.278;2023-01-24T15:03:14;8.20;;;7.30;;
11498;SDS011;5806;48.748;9.278;2023-01-24T15:05:47;8.97;;;7.10;;
11498;SDS011;5806;48.748;9.278;2023-01-24T15:08:18;8.60;;;7.70;;
11498;SDS011;5806;48.748;9.278;2023-01-24T15:10:58;7.53;;;6.70;;
11498;SDS011;5806;48.748;9.278;2023-01-24T15:13:24;8.43;;;7.53;;
11498;SDS011;5806;48.748;9.278;2023-01-24T15:16:15;8.60;;;7.40;;
11498;SDS011;5806;48.748;9.278;2023-01-24T15:18:45;7.80;;;7.00;;
11498;SDS011;5806;48.748;9.278;2023-01-24T15:22:00;8.03;;;6.87;;
11498;SDS011;5806;48.748;9.278;2023-01-24T15:23:48;8.10;;;7.30;;
11498;SDS011;5806;48.748;9.278;2023-01-24T15:26:32;8.40;;;7.23;;
11498;SDS011;5806;48.748;9.278;2023-01-24T15:28:50;9.67;;;7.70;;
11498;SDS011;5806;48.748;9.278;2023-01-24T15:31:22;9.03;;;7.90;;
11498;SDS011;5806;48.748;9.278;2023-01-24T15:33:55;9.20;;;7.53;;
11498;SDS011;5806;48.748;9.278;2023-01-24T15:36:28;9.67;;;7.73;;
11498;SDS011;5806;48.748;9.278;2023-01-24T15:38:58;8.73;;;7.10;;
11498;SDS011;5806;48.748;9.278;2023-01-24T15:41:27;8.90;;;7.97;;
11498;SDS011;5806;48.748;9.278;2023-01-24T15:44:15;8.90;;;7.70;;
11498;SDS011;5806;48.748;9.278;2023-01-24T15:46:43;9.13;;;7.63;;
11498;SDS011;5806;48.748;9.278;2023-01-24T15:49:31;8.33;;;7.47;;
11498;SDS011;5806;48.748;9.278;2023-01-24T15:54:40;8.80;;;7.90;;
11498;SDS011;5806;48.748;9.278;2023-01-24T15:57:17;9.50;;;8.03;;
11498;SDS011;5806;48.748;9.278;2023-01-24T15:59:53;7.97;;;7.17;;
11498;SDS011;5806;48.748;9.278;2023-01-24T16:02:22;9.97;;;8.23;;
11498;SDS011;5806;48.748;9.278;2023-01-24T16:04:50;8.90;;;8.00;;
11498;SDS011;5806;48.748;9.278;2023-01-24T16:07:17;10.53;;;8.33;;
11498;SDS011;5806;48.748;9.278;2023-01-24T16:09:45;8.63;;;7.57;;
11498;SDS011;5806;48.748;9.278;2023-01-24T16:12:14;9.77;;;8.77;;
11498;SDS011;5806;48.748;9.278;2023-01-24T16:14:46;8.80;;;7.90;;
11498;SDS011;5806;48.748;9.278;2023-01-24T16:17:22;9.53;;;8.50;;
11498;SDS011;5806;48.748;9.278;2023-01-24T16:19:47;10.17;;;8.73;;
11498;SDS011;5806;48.748;9.278;2023-01-24T16:22:15;9.37;;;8.00;;
11498;SDS011;5806;48.748;9.278;2023-01-24T16:24:43;9.30;;;8.23;;
11498;SDS011;5806;48.748;9.278;2023-01-24T16:27:11;9.93;;;8.40;;
11498;SDS011;5806;48.748;9.278;2023-01-24T16:29:40;10.23;;;8.13;;
11498;SDS011;5806;48.748;9.278;2023-01-24T16:32:21;10.10;;;8.10;;
11498;SDS011;5806;48.748;9.278;2023-01-24T16:34:49;8.73;;;7.83;;
11498;SDS011;5806;48.748;9.278;2023-01-24T16:37:17;10.40;;;9.30;;
11498;SDS011;5806;48.748;9.278;2023-01-24T16:39:44;10.70;;;8.50;;
11498;SDS011;5806;48.748;9.278;2023-01-24T16:42:17;9.27;;;8.37;;
11498;SDS011;5806;48.748;9.278;2023-01-24T16:45:03;9.37;;;8.47;;
11498;SDS011;5806;48.748;9.278;2023-01-24T16:47:21;9.67;;;8.67;;
11498;SDS011;5806;48.748;9.278;2023-01-24T16:49:53;9.90;;;8.90;;
11498;SDS011;5806;48.748;9.278;2023-01-24T16:52:21;10.87;;;8.50;;
11498;SDS011;5806;48.748;9.278;2023-01-24T16:54:50;11.37;;;8.50;;
11498;SDS011;5806;48.748;9.278;2023-01-24T16:57:18;9.13;;;8.20;;
11498;SDS011;5806;48.748;9.278;2023-01-24T16:59:45;9.33;;;8.30;;
11498;SDS011;5806;48.748;9.278;2023-01-24T17:02:13;9.40;;;8.40;;
11498;SDS011;5806;48.748;9.278;2023-01-24T17:04:41;9.50;;;8.60;;
11498;SDS011;5806;48.748;9.278;2023-01-24T17:07:09;9.83;;;8.83;;
11498;SDS011;5806;48.748;9.278;2023-01-24T17:09:36;11.03;;;9.20;;
11498;SDS011;5806;48.748;9.278;2023-01-24T17:12:04;10.00;;;8.77;;
11498;SDS011;5806;48.748;9.278;2023-01-24T17:14:34;11.43;;;9.57;;
11498;SDS011;5806;48.748;9.278;2023-01-24T17:17:02;9.17;;;8.27;;
11498;SDS011;5806;48.748;9.278;2023-01-24T17:19:29;10.93;;;8.73;;
11498;SDS011;5806;48.748;9.278;2023-01-24T17:21:59;10.20;;;9.17;;
11498;SDS011;5806;48.748;9.278;2023-01-24T17:24:26;10.20;;;9.17;;
11498;SDS011;5806;48.748;9.278;2023-01-24T17:26:54;11.83;;;9.13;;
11498;SDS011;5806;48.748;9.278;2023-01-24T17:29:22;10.47;;;9.33;;
11498;SDS011;5806;48.748;9.278;2023-01-24T17:31:51;11.50;;;10.20;;
11498;SDS011;5806;48.748;9.278;2023-01-24T17:34:18;10.77;;;9.67;;
11498;SDS011;5806;48.748;9.278;2023-01-24T17:36:46;12.00;;;10.67;;